createdAt,value
2023-01-06T00:01:23.740Z,44.57
2023-01-06T00:03:51.974Z,44.70
2023-01-06T00:06:20.915Z,44.54
2023-01-06T00:08:47.372Z,44.55
2023-01-06T00:11:15.219Z,44.66
2023-01-06T00:13:42.205Z,44.52
2023-01-06T00:16:14.645Z,44.57
2023-01-06T00:18:41.709Z,44.51
2023-01-06T00:21:09.455Z,44.63
2023-01-06T00:23:36.726Z,44.48
2023-01-06T00:26:04.939Z,44.38
2023-01-06T00:28:31.555Z,44.44
2023-01-06T00:30:58.603Z,44.55
2023-01-06T00:33:25.363Z,44.40
2023-01-06T00:35:51.926Z,44.54
2023-01-06T00:38:19.342Z,44.28
2023-01-06T00:40:45.908Z,44.36
2023-01-06T00:43:12.424Z,44.52
2023-01-06T00:45:38.915Z,44.42
2023-01-06T00:48:05.682Z,44.47
2023-01-06T00:50:32.183Z,44.45
2023-01-06T00:52:58.987Z,44.47
2023-01-06T00:55:25.488Z,44.43
2023-01-06T00:57:52.953Z,44.27
2023-01-06T01:00:20.041Z,44.64
2023-01-06T01:02:46.585Z,44.51
2023-01-06T01:05:13.443Z,44.32
2023-01-06T01:07:41.118Z,44.42
2023-01-06T01:10:08.441Z,44.38
2023-01-06T01:12:34.956Z,44.46
2023-01-06T01:15:01.488Z,44.34
2023-01-06T01:17:30.755Z,44.23
2023-01-06T01:19:59.224Z,44.28
2023-01-06T01:22:27.816Z,44.38
2023-01-06T01:24:54.335Z,44.40
2023-01-06T01:27:20.910Z,44.32
2023-01-06T01:29:47.495Z,44.35
2023-01-06T01:32:14.174Z,44.26
2023-01-06T01:34:40.658Z,44.32
2023-01-06T01:37:07.285Z,44.17
2023-01-06T01:39:33.833Z,44.21
2023-01-06T01:42:00.456Z,43.98
2023-01-06T01:44:59.663Z,44.16
2023-01-06T01:47:58.507Z,44.23
2023-01-06T01:50:31.181Z,44.15
2023-01-06T01:53:05.294Z,44.12
2023-01-06T01:55:32.867Z,44.17
2023-01-06T01:58:01.916Z,44.15
2023-01-06T02:00:28.591Z,44.27
2023-01-06T02:02:56.029Z,43.99
2023-01-06T02:05:25.491Z,44.14
2023-01-06T02:07:53.067Z,44.03
2023-01-06T02:10:22.747Z,44.08
2023-01-06T02:12:54.559Z,44.02
2023-01-06T02:15:25.159Z,44.18
2023-01-06T02:17:54.328Z,44.28
2023-01-06T02:20:35.727Z,44.04
2023-01-06T02:23:16.267Z,44.03
2023-01-06T02:25:57.345Z,44.10
2023-01-06T02:28:59.835Z,43.96
2023-01-06T02:31:50.527Z,43.87
2023-01-06T02:34:39.828Z,43.89
2023-01-06T02:37:27.871Z,44.03
2023-01-06T02:40:02.845Z,44.06
2023-01-06T02:43:02.880Z,44.07
2023-01-06T02:45:44.004Z,44.00
2023-01-06T02:48:40.724Z,43.79
2023-01-06T02:51:33.689Z,43.99
2023-01-06T02:54:09.171Z,44.06
2023-01-06T02:56:43.876Z,43.75
2023-01-06T02:59:20.517Z,43.67
2023-01-06T03:01:51.059Z,43.73
2023-01-06T03:04:21.681Z,43.82
2023-01-06T03:06:52.083Z,43.65
2023-01-06T03:09:22.606Z,43.85
2023-01-06T03:11:50.641Z,43.66
2023-01-06T03:14:37.814Z,43.82
2023-01-06T03:17:04.772Z,43.57
2023-01-06T03:19:32.265Z,43.71
2023-01-06T03:22:00.585Z,43.69
2023-01-06T03:24:28.025Z,43.67
2023-01-06T03:26:55.116Z,43.73
2023-01-06T03:29:22.928Z,43.76
2023-01-06T03:32:03.798Z,43.76
2023-01-06T03:34:50.255Z,43.69
2023-01-06T03:38:03.462Z,43.62
2023-01-06T03:40:35.596Z,43.71
2023-01-06T03:43:13.030Z,43.62
2023-01-06T03:45:54.796Z,43.53
2023-01-06T03:49:05.517Z,43.57
2023-01-06T03:51:44.005Z,43.65
2023-01-06T03:54:32.446Z,43.42
2023-01-06T03:57:11.412Z,43.55
2023-01-06T03:59:45.055Z,43.49
2023-01-06T04:02:12.295Z,43.48
2023-01-06T04:04:38.893Z,43.53
2023-01-06T04:07:05.824Z,43.51
2023-01-06T04:09:32.640Z,43.66
2023-01-06T04:12:17.477Z,43.66
2023-01-06T04:14:44.236Z,43.48
2023-01-06T04:17:12.894Z,43.49
2023-01-06T04:19:40.312Z,43.72
2023-01-06T04:22:06.802Z,43.46
2023-01-06T04:24:33.415Z,43.59
2023-01-06T04:27:00.021Z,43.61
2023-01-06T04:29:26.524Z,43.45
2023-01-06T04:31:53.307Z,43.51
2023-01-06T04:34:19.882Z,43.37
2023-01-06T04:36:46.417Z,43.48
2023-01-06T04:39:13.193Z,43.55
2023-01-06T04:41:39.712Z,43.35
2023-01-06T04:44:06.273Z,43.47
2023-01-06T04:46:32.801Z,43.51
2023-01-06T04:48:59.277Z,43.36
2023-01-06T04:51:25.823Z,43.60
2023-01-06T04:53:52.297Z,43.58
2023-01-06T04:56:18.878Z,43.64
2023-01-06T04:58:45.501Z,43.61
2023-01-06T05:01:13.137Z,43.63
2023-01-06T05:03:40.804Z,43.38
2023-01-06T05:06:12.338Z,43.45
2023-01-06T05:08:40.410Z,43.54
2023-01-06T05:11:09.512Z,43.58
2023-01-06T05:13:36.603Z,43.59
2023-01-06T05:16:07.676Z,43.69
2023-01-06T05:18:34.358Z,43.58
2023-01-06T05:21:00.920Z,43.67
2023-01-06T05:23:28.004Z,43.36
2023-01-06T05:25:54.686Z,43.66
2023-01-06T05:28:21.587Z,43.57
2023-01-06T05:30:48.531Z,43.65
2023-01-06T05:33:15.481Z,43.51
2023-01-06T05:35:42.130Z,43.64
2023-01-06T05:38:09.018Z,43.88
2023-01-06T05:40:35.723Z,43.73
2023-01-06T05:43:02.198Z,43.58
2023-01-06T05:45:28.801Z,43.67
2023-01-06T05:47:55.366Z,43.85
2023-01-06T05:50:21.844Z,43.87
2023-01-06T05:52:48.409Z,43.62
2023-01-06T05:55:14.970Z,43.84
2023-01-06T05:57:41.419Z,43.79
2023-01-06T06:00:08.566Z,43.84
2023-01-06T06:02:35.094Z,43.61
2023-01-06T06:05:01.748Z,43.67
2023-01-06T06:07:28.235Z,43.88
2023-01-06T06:09:54.700Z,43.84
2023-01-06T06:12:21.477Z,43.89
2023-01-06T06:14:47.930Z,43.96
2023-01-06T06:17:14.467Z,43.84
2023-01-06T06:19:41.036Z,43.82
2023-01-06T06:22:10.456Z,43.75
2023-01-06T06:24:37.263Z,43.95
2023-01-06T06:27:03.869Z,43.87
2023-01-06T06:29:30.449Z,43.86
2023-01-06T06:31:56.996Z,43.77
2023-01-06T06:34:23.504Z,43.86
2023-01-06T06:36:50.275Z,44.04
2023-01-06T06:39:16.893Z,43.82
2023-01-06T06:41:43.342Z,43.80
2023-01-06T06:44:09.893Z,43.81
2023-01-06T06:46:36.349Z,43.69
2023-01-06T06:49:02.993Z,43.89
2023-01-06T06:51:30.074Z,43.99
2023-01-06T06:53:56.922Z,44.00
2023-01-06T06:56:23.479Z,43.80
2023-01-06T06:58:50.118Z,43.98
2023-01-06T07:01:20.025Z,43.99
2023-01-06T07:03:46.731Z,43.90
2023-01-06T07:06:17.041Z,43.92
2023-01-06T07:08:44.960Z,43.94
2023-01-06T07:11:11.855Z,43.81
2023-01-06T07:13:38.686Z,43.92
2023-01-06T07:16:05.756Z,43.86
2023-01-06T07:18:32.367Z,43.93
2023-01-06T07:20:58.891Z,43.89
2023-01-06T07:23:25.605Z,43.83
2023-01-06T07:25:57.737Z,43.80
2023-01-06T07:28:25.033Z,43.79
2023-01-06T07:30:52.161Z,43.72
2023-01-06T07:33:20.037Z,43.85
2023-01-06T07:35:47.042Z,43.93
2023-01-06T07:38:13.597Z,43.93
2023-01-06T07:40:40.145Z,43.78
2023-01-06T07:43:09.162Z,43.76
2023-01-06T07:45:36.361Z,43.81
2023-01-06T07:48:03.286Z,44.00
2023-01-06T07:50:31.795Z,43.93
2023-01-06T07:52:59.876Z,43.89
2023-01-06T07:55:26.815Z,43.94
2023-01-06T07:57:53.987Z,43.88
2023-01-06T08:00:20.988Z,43.69
2023-01-06T08:02:47.565Z,43.82
2023-01-06T08:05:14.422Z,43.86
2023-01-06T08:07:40.957Z,43.86
2023-01-06T08:10:07.955Z,43.76
2023-01-06T08:12:34.613Z,43.90
2023-01-06T08:15:01.121Z,43.83
2023-01-06T08:17:27.720Z,43.90
2023-01-06T08:19:54.232Z,44.05
2023-01-06T08:22:20.803Z,43.95
2023-01-06T08:24:47.324Z,44.00
2023-01-06T08:27:13.870Z,44.03
2023-01-06T08:29:40.355Z,44.11
2023-01-06T08:32:10.812Z,44.03
2023-01-06T08:34:38.057Z,44.11
2023-01-06T08:37:04.857Z,44.07
2023-01-06T08:39:31.430Z,43.90
2023-01-06T08:41:58.316Z,44.03
2023-01-06T08:44:24.830Z,44.64
2023-01-06T08:46:51.366Z,44.62
2023-01-06T08:49:17.904Z,45.12
2023-01-06T08:51:44.489Z,45.51
2023-01-06T08:54:11.112Z,46.09
2023-01-06T08:56:39.318Z,46.36
2023-01-06T08:59:06.511Z,46.38
2023-01-06T09:01:35.612Z,46.81
2023-01-06T09:04:05.246Z,47.26
2023-01-06T09:06:31.831Z,47.52
2023-01-06T09:08:59.262Z,47.66
2023-01-06T09:11:26.147Z,47.63
2023-01-06T09:13:53.101Z,47.77
2023-01-06T09:16:20.860Z,47.69
2023-01-06T09:18:51.504Z,47.57
2023-01-06T09:21:20.703Z,47.64
2023-01-06T09:23:48.587Z,47.55
2023-01-06T09:26:16.877Z,47.57
2023-01-06T09:28:43.479Z,47.52
2023-01-06T09:31:10.274Z,47.40
2023-01-06T09:33:37.220Z,47.06
2023-01-06T09:36:04.017Z,47.22
2023-01-06T09:38:30.700Z,47.09
2023-01-06T09:41:32.160Z,46.90
2023-01-06T09:44:17.378Z,46.66
2023-01-06T09:46:46.795Z,46.44
2023-01-06T09:49:42.175Z,46.43
2023-01-06T09:52:31.823Z,46.37
2023-01-06T09:55:05.204Z,46.37
2023-01-06T09:57:31.657Z,46.38
2023-01-06T10:00:26.643Z,46.25
2023-01-06T10:02:53.311Z,46.25
2023-01-06T10:05:26.288Z,46.20
2023-01-06T10:08:13.841Z,46.24
2023-01-06T10:11:12.425Z,48.66
2023-01-06T10:13:56.541Z,48.63
2023-01-06T10:16:29.466Z,48.12
2023-01-06T10:19:09.840Z,48.11
2023-01-06T10:22:00.983Z,47.97
2023-01-06T10:24:30.376Z,47.86
2023-01-06T10:26:59.340Z,47.75
2023-01-06T10:29:32.897Z,47.80
2023-01-06T10:32:02.536Z,48.00
2023-01-06T10:34:29.407Z,47.97
2023-01-06T10:37:17.416Z,48.11
2023-01-06T10:39:48.196Z,48.15
2023-01-06T10:42:47.818Z,48.22
2023-01-06T10:45:14.888Z,48.32
2023-01-06T10:47:43.527Z,48.32
2023-01-06T10:50:15.665Z,48.42
2023-01-06T10:52:43.374Z,48.19
2023-01-06T10:55:36.535Z,47.75
2023-01-06T10:58:13.254Z,47.80
2023-01-06T11:00:55.019Z,47.86
2023-01-06T11:03:32.869Z,47.76
2023-01-06T11:06:07.833Z,47.66
2023-01-06T11:08:36.455Z,47.46
2023-01-06T11:11:09.532Z,47.45
2023-01-06T11:13:39.661Z,47.48
2023-01-06T11:16:17.512Z,47.39
2023-01-06T11:18:44.086Z,47.21
2023-01-06T11:21:17.758Z,47.15
2023-01-06T11:23:46.957Z,47.32
2023-01-06T11:26:20.720Z,47.11
2023-01-06T11:28:49.243Z,47.02
2023-01-06T11:31:19.320Z,47.19
2023-01-06T11:33:52.944Z,47.04
2023-01-06T11:36:22.460Z,46.83
2023-01-06T11:38:51.641Z,46.73
2023-01-06T11:41:36.034Z,46.55
2023-01-06T11:44:32.196Z,46.39
2023-01-06T11:47:12.111Z,46.45
2023-01-06T11:49:46.792Z,46.39
2023-01-06T11:52:32.441Z,46.42
2023-01-06T11:55:02.005Z,46.31
2023-01-06T11:57:39.957Z,46.37
2023-01-06T12:00:38.392Z,46.29
2023-01-06T12:03:10.622Z,46.31
2023-01-06T12:06:01.600Z,46.22
2023-01-06T12:08:34.207Z,46.30
2023-01-06T12:11:10.697Z,46.29
2023-01-06T12:13:44.327Z,46.20
2023-01-06T12:16:14.589Z,45.98
2023-01-06T12:18:42.836Z,46.06
2023-01-06T12:21:18.252Z,46.18
2023-01-06T12:23:46.047Z,46.19
2023-01-06T12:26:24.711Z,46.27
2023-01-06T12:28:54.861Z,46.35
2023-01-06T12:31:44.718Z,46.51
2023-01-06T12:34:11.169Z,46.79
2023-01-06T12:36:55.614Z,47.17
2023-01-06T12:39:37.610Z,47.44
2023-01-06T12:42:16.358Z,47.39
2023-01-06T12:44:54.869Z,47.61
2023-01-06T12:47:43.605Z,47.82
2023-01-06T12:50:38.653Z,47.96
2023-01-06T12:53:20.588Z,48.07
2023-01-06T12:56:11.075Z,48.21
2023-01-06T12:58:47.064Z,48.33
2023-01-06T13:01:24.931Z,48.18
2023-01-06T13:04:28.319Z,48.19
2023-01-06T13:07:25.525Z,48.28
2023-01-06T13:10:00.125Z,48.28
2023-01-06T13:13:00.907Z,48.33
2023-01-06T13:15:38.566Z,48.26
2023-01-06T13:18:53.332Z,48.39
2023-01-06T13:21:23.572Z,48.31
2023-01-06T13:23:55.677Z,48.29
2023-01-06T13:26:45.670Z,48.30
2023-01-06T13:29:27.316Z,48.27
2023-01-06T13:32:02.877Z,48.07
2023-01-06T13:34:42.010Z,48.07
2023-01-06T13:37:36.629Z,48.06
2023-01-06T13:40:13.301Z,47.91
2023-01-06T13:42:46.425Z,47.92
2023-01-06T13:45:21.097Z,47.73
2023-01-06T13:47:49.854Z,47.78
2023-01-06T13:50:19.347Z,47.71
2023-01-06T13:52:46.673Z,47.57
2023-01-06T13:55:19.385Z,47.51
2023-01-06T13:57:46.559Z,47.44
2023-01-06T14:00:19.238Z,47.41
2023-01-06T14:02:45.748Z,47.44
2023-01-06T14:05:21.444Z,47.37
2023-01-06T14:08:14.747Z,47.16
2023-01-06T14:10:43.781Z,47.32
2023-01-06T14:13:36.849Z,47.11
2023-01-06T14:16:12.009Z,47.06
2023-01-06T14:18:47.324Z,47.01
2023-01-06T14:21:13.743Z,46.90
2023-01-06T14:24:04.448Z,46.86
2023-01-06T14:26:51.208Z,46.82
2023-01-06T14:29:39.730Z,46.77
2023-01-06T14:32:11.210Z,46.75
2023-01-06T14:34:49.441Z,46.78
2023-01-06T14:37:17.447Z,46.66
2023-01-06T14:39:53.518Z,46.73
2023-01-06T14:42:29.903Z,46.73
2023-01-06T14:45:00.932Z,46.68
2023-01-06T14:47:33.176Z,46.77
2023-01-06T14:50:22.589Z,46.83
2023-01-06T14:52:57.582Z,46.82
2023-01-06T14:55:27.132Z,46.83
2023-01-06T14:57:54.080Z,46.58
2023-01-06T15:00:30.029Z,46.53
2023-01-06T15:02:59.334Z,46.47
2023-01-06T15:05:34.689Z,46.44
2023-01-06T15:08:05.664Z,46.37
2023-01-06T15:10:38.247Z,46.38
2023-01-06T15:13:21.745Z,46.45
2023-01-06T15:15:54.360Z,46.49
2023-01-06T15:18:21.068Z,46.18
2023-01-06T15:20:47.816Z,46.31
2023-01-06T15:23:20.110Z,46.20
2023-01-06T15:25:53.777Z,46.23
2023-01-06T15:28:27.262Z,46.22
2023-01-06T15:30:53.920Z,46.24
2023-01-06T15:33:23.841Z,46.31
2023-01-06T15:35:52.079Z,46.28
2023-01-06T15:38:28.423Z,46.14
2023-01-06T15:40:55.228Z,46.15
2023-01-06T15:43:27.692Z,46.06
2023-01-06T15:46:00.174Z,46.18
2023-01-06T15:48:30.358Z,46.11
2023-01-06T15:50:57.304Z,46.00
2023-01-06T15:53:28.241Z,46.09
2023-01-06T15:55:56.344Z,46.02
2023-01-06T15:58:24.840Z,46.00
2023-01-06T16:00:58.149Z,46.00
2023-01-06T16:03:26.973Z,45.79
2023-01-06T16:06:15.177Z,45.92
2023-01-06T16:08:42.870Z,45.80
2023-01-06T16:11:37.343Z,45.81
2023-01-06T16:14:05.935Z,45.86
2023-01-06T16:16:36.343Z,45.59
2023-01-06T16:19:11.437Z,45.64
2023-01-06T16:21:38.062Z,45.59
2023-01-06T16:24:06.022Z,45.63
2023-01-06T16:26:43.424Z,45.59
2023-01-06T16:29:34.121Z,45.72
2023-01-06T16:32:29.956Z,45.77
2023-01-06T16:35:01.931Z,45.60
2023-01-06T16:37:33.989Z,45.65
2023-01-06T16:40:00.581Z,45.81
2023-01-06T16:42:42.739Z,45.83
2023-01-06T16:45:21.641Z,45.84
2023-01-06T16:47:48.214Z,45.96
2023-01-06T16:50:14.979Z,45.90
2023-01-06T16:52:42.507Z,46.05
2023-01-06T16:55:13.575Z,46.08
2023-01-06T16:57:40.936Z,46.11
2023-01-06T17:00:14.659Z,45.99
2023-01-06T17:02:42.054Z,46.07
2023-01-06T17:05:27.038Z,46.12
2023-01-06T17:07:58.160Z,46.09
2023-01-06T17:10:25.172Z,46.26
2023-01-06T17:13:16.227Z,46.30
2023-01-06T17:15:42.893Z,46.08
2023-01-06T17:18:20.807Z,46.11
2023-01-06T17:20:47.557Z,46.10
2023-01-06T17:23:14.065Z,46.17
2023-01-06T17:25:42.625Z,46.21
2023-01-06T17:28:20.817Z,46.19
2023-01-06T17:30:48.629Z,46.15
2023-01-06T17:33:18.261Z,46.21
2023-01-06T17:35:48.728Z,46.11
2023-01-06T17:38:18.229Z,46.26
2023-01-06T17:40:44.797Z,46.41
2023-01-06T17:43:33.722Z,46.34
2023-01-06T17:46:01.207Z,46.59
2023-01-06T17:48:27.727Z,46.30
2023-01-06T17:50:55.793Z,46.54
2023-01-06T17:53:50.534Z,46.55
2023-01-06T17:56:17.749Z,46.43
2023-01-06T17:58:45.456Z,46.53
2023-01-06T18:01:32.318Z,46.52
2023-01-06T18:04:00.430Z,46.50
2023-01-06T18:06:30.416Z,46.43
2023-01-06T18:09:18.910Z,46.42
2023-01-06T18:11:51.319Z,46.38
2023-01-06T18:14:31.102Z,46.34
2023-01-06T18:17:04.395Z,46.43
2023-01-06T18:19:37.480Z,46.44
2023-01-06T18:22:16.925Z,46.37
2023-01-06T18:24:43.937Z,46.35
2023-01-06T18:27:19.794Z,46.43
2023-01-06T18:29:46.418Z,46.46
2023-01-06T18:32:21.902Z,46.44
2023-01-06T18:34:50.666Z,46.50
2023-01-06T18:37:17.889Z,46.53
2023-01-06T18:39:49.971Z,46.49
2023-01-06T18:42:22.877Z,46.41
2023-01-06T18:44:51.721Z,46.34
2023-01-06T18:47:21.442Z,46.21
2023-01-06T18:49:49.869Z,46.15
2023-01-06T18:52:45.827Z,46.28
2023-01-06T18:55:18.207Z,46.26
2023-01-06T18:57:46.038Z,46.24
2023-01-06T19:00:30.991Z,46.21
2023-01-06T19:03:12.377Z,46.14
2023-01-06T19:05:39.043Z,46.10
2023-01-06T19:08:17.665Z,46.21
2023-01-06T19:10:48.555Z,46.15
2023-01-06T19:13:21.712Z,46.21
2023-01-06T19:15:48.951Z,46.23
2023-01-06T19:18:17.386Z,46.17
2023-01-06T19:20:45.988Z,46.10
2023-01-06T19:23:22.623Z,46.11
2023-01-06T19:25:58.816Z,46.09
2023-01-06T19:28:30.010Z,45.91
2023-01-06T19:30:58.643Z,45.93
2023-01-06T19:34:01.915Z,45.91
2023-01-06T19:36:50.689Z,45.97
2023-01-06T19:39:28.147Z,45.92
2023-01-06T19:41:59.238Z,45.99
2023-01-06T19:44:35.849Z,45.82
2023-01-06T19:47:35.713Z,45.87
2023-01-06T19:50:17.842Z,45.90
2023-01-06T19:52:44.472Z,45.88
2023-01-06T19:55:22.518Z,45.80
2023-01-06T19:57:55.557Z,45.82
2023-01-06T20:00:25.079Z,45.77
2023-01-06T20:02:56.677Z,45.83
2023-01-06T20:05:25.401Z,45.65
2023-01-06T20:07:52.409Z,45.61
2023-01-06T20:10:20.616Z,45.58
2023-01-06T20:12:48.660Z,45.57
2023-01-06T20:15:16.088Z,45.58
2023-01-06T20:17:42.742Z,45.62
2023-01-06T20:20:09.792Z,45.75
2023-01-06T20:22:36.391Z,45.58
2023-01-06T20:25:03.232Z,45.46
2023-01-06T20:27:29.826Z,45.48
2023-01-06T20:29:56.455Z,45.62
2023-01-06T20:32:22.975Z,45.52
2023-01-06T20:34:49.608Z,45.58
2023-01-06T20:37:16.092Z,45.30
2023-01-06T20:39:42.595Z,45.48
2023-01-06T20:42:09.468Z,45.43
2023-01-06T20:44:36.577Z,45.39
2023-01-06T20:47:03.165Z,45.43
2023-01-06T20:49:29.957Z,45.53
2023-01-06T20:51:56.576Z,45.52
2023-01-06T20:54:23.121Z,45.45
2023-01-06T20:56:49.600Z,45.58
2023-01-06T20:59:16.451Z,45.38
2023-01-06T21:01:43.146Z,45.52
2023-01-06T21:04:09.735Z,45.45
2023-01-06T21:06:36.241Z,45.48
2023-01-06T21:09:02.968Z,45.50
2023-01-06T21:11:29.557Z,45.47
2023-01-06T21:13:56.083Z,45.41
2023-01-06T21:16:22.778Z,45.49
2023-01-06T21:18:49.868Z,45.50
2023-01-06T21:21:16.453Z,45.50
2023-01-06T21:23:43.249Z,45.49
2023-01-06T21:26:09.796Z,45.33
2023-01-06T21:28:36.379Z,45.42
2023-01-06T21:31:02.909Z,45.52
2023-01-06T21:33:29.625Z,45.52
2023-01-06T21:35:56.136Z,45.51
2023-01-06T21:38:22.624Z,45.42
2023-01-06T21:40:49.129Z,45.51
2023-01-06T21:43:15.796Z,45.46
2023-01-06T21:45:44.055Z,45.53
2023-01-06T21:48:12.528Z,45.35
2023-01-06T21:50:43.282Z,45.49
2023-01-06T21:53:11.405Z,45.43
2023-01-06T21:55:38.401Z,45.42
2023-01-06T21:58:05.004Z,45.38
2023-01-06T22:00:31.881Z,45.47
2023-01-06T22:02:58.515Z,45.42
2023-01-06T22:05:25.031Z,45.41
2023-01-06T22:07:53.719Z,45.40
2023-01-06T22:10:23.102Z,45.29
2023-01-06T22:12:52.719Z,45.46
2023-01-06T22:15:19.919Z,45.31
2023-01-06T22:17:46.648Z,45.43
2023-01-06T22:20:13.693Z,45.32
2023-01-06T22:22:41.101Z,45.34
2023-01-06T22:25:08.231Z,45.16
2023-01-06T22:27:34.896Z,45.22
2023-01-06T22:30:01.465Z,45.19
2023-01-06T22:32:28.408Z,45.22
2023-01-06T22:34:54.996Z,45.10
2023-01-06T22:37:21.692Z,45.25
2023-01-06T22:39:49.266Z,45.27
2023-01-06T22:42:16.036Z,45.23
2023-01-06T22:44:42.635Z,45.16
2023-01-06T22:47:09.192Z,45.15
2023-01-06T22:49:35.675Z,45.23
2023-01-06T22:52:02.196Z,45.21
2023-01-06T22:54:28.724Z,45.00
2023-01-06T22:56:55.240Z,45.14
2023-01-06T22:59:21.795Z,45.16
2023-01-06T23:01:48.459Z,45.15
2023-01-06T23:04:15.047Z,45.13
2023-01-06T23:06:42.162Z,45.10
2023-01-06T23:09:08.725Z,45.10
2023-01-06T23:11:41.543Z,45.16
2023-01-06T23:14:09.838Z,45.05
2023-01-06T23:16:37.397Z,45.06
2023-01-06T23:19:04.137Z,44.93
2023-01-06T23:21:33.109Z,44.97
2023-01-06T23:23:59.986Z,44.94
2023-01-06T23:26:33.998Z,44.94
2023-01-06T23:29:01.334Z,45.12
2023-01-06T23:31:35.601Z,45.00
2023-01-06T23:34:08.187Z,44.82
2023-01-06T23:36:36.257Z,44.97
2023-01-06T23:39:06.064Z,44.85
2023-01-06T23:41:34.636Z,44.90
2023-01-06T23:44:02.008Z,44.91
2023-01-06T23:46:34.023Z,44.94
2023-01-06T23:49:01.278Z,45.06
2023-01-06T23:51:32.309Z,44.77
2023-01-06T23:54:00.239Z,44.77
2023-01-06T23:56:28.967Z,44.81
2023-01-06T23:58:58.385Z,44.68
